Kugler, Minnesota
Current Conditions -  °F | °C
As of 9:54 PM on Saturday 20 Dec 2014 (Local Time) from KCQM Reporting Station
Haze Haze  
Wind Chill: -6°   Ceiling: 500
Heat Index: -2°   Visibility: 4mi
Dew Point: -3°   Wind: 7mph
Humidity: 93%   Direction: 160°SSE
Pressure: 30"   Gusts: NA
Location:  47.7992°N, 92.3042°W
Report Text: KCQM 210354Z AUTO 16006KT 4SM BR OVC005 M02/M03 A3000 RMK AO2
Loading
Personal Weather Stations






























Interactive Weather Map New forecast layout! Learn more

10-Day Weather Forecast

Advertisements
Track Severe Weather on mobile